Home > Products > Valid Products > MTR

000
SAUS43 KBIS 051453
MTRN60
METAR KN60 051452Z AUTO 05009KT 18/17 A2979 RMK AO1 PRESFR SLP082
P0009 60024 T01780167 50005





000
SAUS43 KBIS 051354
MTRN60
METAR KN60 051352Z AUTO 35012KT 18/17 A2985 RMK AO1 PK WND
35032/1254 SLP102 P0001 T01780167





000
SAUS43 KBIS 051253
MTRN60
METAR KN60 051252Z AUTO 35022G29KT 18/17 A2981 RMK AO1 PK WND
30033/1226 PRESFR SLP085 P0014 T01830167





000
SAUS43 KBIS 051154
MTRN60
METAR KN60 051152Z AUTO 02008KT 18/17 A2978 RMK AO1 SLP074 T01830167
10194 20183 53014





000
SAUS43 KBIS 051053
MTRN60
METAR KN60 051052Z AUTO 02008KT 19/17 A2975 RMK AO1 SLP062 T01890172





000
SAUS43 KBIS 050954
MTRN60
METAR KN60 050952Z AUTO 02006KT 19/17 A2972 RMK AO1 SLP053 T01890167





000
SAUS43 KBIS 050853
MTRN60
METAR KN60 050852Z AUTO 03008KT 19/17 A2973 RMK AO1 SLP056 T01890167
58001





000
SAUS43 KBIS 050853
MTRN60
METAR KN60 050852Z AUTO 03008KT 19/17 A2973 RMK AO1 SLP056 T01890167
58001





000
SAUS43 KBIS 050754
MTRN60
METAR KN60 050752Z AUTO 03007KT 19/16 A2974 RMK AO1 SLP059 T01890161





000
SAUS43 KBIS 050653
MTRN60
METAR KN60 050652Z AUTO 02005KT 19/17 A2975 RMK AO1 SLP065 T01890167





000
SAUS43 KBIS 050553
MTRN60
METAR KN60 050552Z AUTO 00000KT 18/17 A2974 RMK AO1 SLP058 T01830167
10261 20183 403060178 58001





000
SAUS43 KBIS 050553
MTRN60
METAR KN60 050552Z AUTO 00000KT 18/17 A2974 RMK AO1 SLP058 T01830167
10261 20183 403060178 58001





000
SAUS43 KBIS 050454
MTRN60
METAR KN60 050452Z AUTO 36003KT 19/17 A2973 RMK AO1 SLP058 T01940172





000
SAUS43 KBIS 050353
MTRN60
METAR KN60 050352Z AUTO 02004KT 21/18 A2975 RMK AO1 SLP063 T02110178





000
SAUS43 KBIS 050353
MTRN60
METAR KN60 050352Z AUTO 02004KT 21/18 A2975 RMK AO1 SLP063 T02110178





000
SAUS43 KBIS 050254
MTRN60
METAR KN60 050252Z AUTO 03006KT 22/19 A2974 RMK AO1 SLP060 T02220194
53016





000
SAUS43 KBIS 050153
MTRN60
METAR KN60 050152Z AUTO 00000KT 24/20 A2969 RMK AO1 SLP044 T02390200





000
SAUS43 KBIS 050053
MTRN60
METAR KN60 050052Z AUTO 28007KT 26/21 A2972 RMK AO1 SLP054 T02560211





000
SAUS43 KBIS 042353
MTRN60
METAR KN60 042352Z AUTO 18005KT 26/21 A2969 RMK AO1 SLP044 T02610211
10306 20261 57009





000
SAUS43 KBIS 042353
MTRN60
METAR KN60 042352Z AUTO 18005KT 26/21 A2969 RMK AO1 SLP044 T02610211
10306 20261 57009





000
SAUS43 KBIS 042253
MTRN60
METAR KN60 042252Z AUTO 17008KT 28/21 A2970 RMK AO1 SLP046 T02780211





000
SAUS43 KBIS 042153
MTRN60
METAR KN60 042152Z AUTO 17010KT 30/21 A2971 RMK AO1 PRESFR SLP048
T03000206





000
SAUS43 KBIS 042054
MTRN60
METAR KN60 042052Z AUTO 17011KT 30/21 A2972 RMK AO1 SLP051 T03000206
58013





000
SAUS43 KBIS 042054
MTRN60
METAR KN60 042052Z AUTO 17011KT 30/21 A2972 RMK AO1 SLP051 T03000206
58013





000
SAUS43 KBIS 041953
MTRN60
METAR KN60 041952Z AUTO 18010KT 30/21 A2974 RMK AO1 SLP060 T03000206





000
SAUS43 KBIS 041953
MTRN60
METAR KN60 041952Z AUTO 18010KT 30/21 A2974 RMK AO1 SLP060 T03000206





000
SAUS43 KBIS 041854
MTRN60
METAR KN60 041852Z AUTO 17010KT 29/20 A2975 RMK AO1 SLP062 T02890200





000
SAUS43 KBIS 041854
MTRN60
METAR KN60 041852Z AUTO 17010KT 29/20 A2975 RMK AO1 SLP062 T02890200





000
SAUS43 KBIS 041754
MTRN60
METAR KN60 041752Z AUTO 17010KT 28/20 A2976 RMK AO1 SLP065 T02780200
10278 20178 58012





000
SAUS43 KBIS 041754
MTRN60
METAR KN60 041752Z AUTO 17010KT 28/20 A2976 RMK AO1 SLP065 T02780200
10278 20178 58012





000
SAUS43 KBIS 041654
MTRN60
METAR KN60 041652Z AUTO 16009KT 26/19 A2977 RMK AO1 SLP071 T02610194





000
SAUS43 KBIS 041554
MTRN60
METAR KN60 041552Z AUTO 16009KT 24/18 A2978 RMK AO1 SLP074 T02440183





000
SAUS43 KBIS 041453
MTRN60
METAR KN60 041452Z AUTO 16008KT 23/18 A2979 RMK AO1 SLP080 T02280183
58008





000
SAUS43 KBIS 041453
MTRN60
METAR KN60 041452Z AUTO 16008KT 23/18 A2979 RMK AO1 SLP080 T02280183
58008





000
SAUS43 KBIS 041354
MTRN60
METAR KN60 041352Z AUTO 16007KT 21/18 A2981 RMK AO1 SLP084 T02110178





000
SAUS43 KBIS 041253
MTRN60
METAR KN60 041252Z AUTO 14004KT 20/18 A2981 RMK AO1 SLP086 T02000183





000
SAUS43 KBIS 041253
MTRN60
METAR KN60 041252Z AUTO 14004KT 20/18 A2981 RMK AO1 SLP086 T02000183





000
SAUS43 KBIS 041154
MTRN60
METAR KN60 041152Z AUTO 17003KT 18/17 A2982 RMK AO1 SLP088 T01780167
10206 20178 56008





000
SAUS43 KBIS 041053
MTRN60
METAR KN60 041052Z AUTO 13004KT 18/17 A2983 RMK AO1 SLP092 T01830172





000
SAUS43 KBIS 041053
MTRN60
METAR KN60 041052Z AUTO 13004KT 18/17 A2983 RMK AO1 SLP092 T01830172





000
SAUS43 KBIS 040954
MTRN60
METAR KN60 040952Z AUTO 14004KT 18/17 A2983 RMK AO1 SLP093 T01780167





000
SAUS43 KBIS 040853
MTRN60
METAR KN60 040852Z AUTO 00000KT 19/17 A2984 RMK AO1 SLP096 T01890172
56012





000
SAUS43 KBIS 040853
MTRN60
METAR KN60 040852Z AUTO 00000KT 19/17 A2984 RMK AO1 SLP096 T01890172
56012





000
SAUS43 KBIS 040754
MTRN60
METAR KN60 040752Z AUTO 14003KT 19/17 A2986 RMK AO1 SLP101 T01890172





000
SAUS43 KBIS 040754
MTRN60
METAR KN60 040752Z AUTO 14003KT 19/17 A2986 RMK AO1 SLP101 T01890172





000
SAUS43 KBIS 040653
MTRN60
METAR KN60 040652Z AUTO 14005KT 20/17 A2987 RMK AO1 SLP104 T02000172





000
SAUS43 KBIS 040553
MTRN60
METAR KN60 040552Z AUTO 17005KT 20/18 A2988 RMK AO1 SLP110 T02000178
10256 20194 402670144 50000





000
SAUS43 KBIS 040453
MTRN60
METAR KN60 040452Z AUTO 16005KT 20/18 A2989 RMK AO1 SLP112 T02000183





000
SAUS43 KBIS 040354
MTRN60
METAR KN60 040352Z AUTO 16005KT 21/18 A2988 RMK AO1 SLP111 T02110183





000
SAUS43 KBIS 040253
MTRN60
METAR KN60 040252Z AUTO 13005KT 22/19 A2988 RMK AO1 SLP111 T02170189
56008





000
SAUS43 KBIS 040154
MTRN60
METAR KN60 040152Z AUTO 15006KT 23/19 A2988 RMK AO1 SLP111 T02330194





000
SAUS43 KBIS 040053
MTRN60
METAR KN60 040052Z AUTO 12006KT 25/19 A2989 RMK AO1 SLP115 T02500194





000
SAUS43 KBIS 032353
MTRN60
METAR KN60 032352Z AUTO 12007KT 26/18 A2990 RMK AO1 SLP119 T02560183
10267 20244 58014





000
SAUS43 KBIS 032253
MTRN60
METAR KN60 032252Z AUTO 15004KT 26/18 A2992 RMK AO1 SLP126 T02610178





000
SAUS43 KBIS 032154
MTRN60
METAR KN60 032152Z AUTO 00000KT 26/17 A2993 RMK AO1 SLP129 T02610172





000
SAUS43 KBIS 032053
MTRN60
METAR KN60 032052Z AUTO 20005KT 26/18 A2995 RMK AO1 SLP133 T02610178
56012





000
SAUS43 KBIS 031954
MTRN60
METAR KN60 031952Z AUTO 18006KT 26/18 A2996 RMK AO1 SLP137 T02610183





000
SAUS43 KBIS 031954
MTRN60
METAR KN60 031952Z AUTO 18006KT 26/18 A2996 RMK AO1 SLP137 T02610183





000
SAUS43 KBIS 031853
MTRN60
METAR KN60 031852Z AUTO 21006KT 26/18 A2997 RMK AO1 SLP142 T02560178





000
SAUS43 KBIS 031754
MTRN60
METAR KN60 031752Z AUTO 16004KT 24/18 A2999 RMK AO1 SLP147 T02440183
10250 20156 58006





000
SAUS43 KBIS 031754
MTRN60
METAR KN60 031752Z AUTO 16004KT 24/18 A2999 RMK AO1 SLP147 T02440183
10250 20156 58006





000
SAUS43 KBIS 031653
MTRN60
METAR KN60 031652Z AUTO 18005KT 24/19 A2999 RMK AO1 SLP149 T02390189





000
SAUS43 KBIS 031554
MTRN60
METAR KN60 031552Z AUTO 00000KT 23/18 A3000 RMK AO1 SLP154 T02280183





000
SAUS43 KBIS 031554
MTRN60
METAR KN60 031552Z AUTO 00000KT 23/18 A3000 RMK AO1 SLP154 T02280183





000
SAUS43 KBIS 031453
MTRN60
METAR KN60 031452Z AUTO 00000KT 20/18 A3001 RMK AO1 SLP156 T02000183
52000





000
SAUS43 KBIS 031453
MTRN60
METAR KN60 031452Z AUTO 00000KT 20/18 A3001 RMK AO1 SLP156 T02000183
52000





000
SAUS43 KBIS 031354
MTRN60
METAR KN60 031352Z AUTO 00000KT 19/17 A3001 RMK AO1 SLP155 T01890167





000
SAUS43 KBIS 031253
MTRN60
METAR KN60 031252Z AUTO 00000KT 17/16 A3001 RMK AO1 SLP155 T01670156





000
SAUS43 KBIS 031154
MTRN60
METAR KN60 031152Z AUTO 00000KT 16/14 A3001 RMK AO1 SLP154 T01610144
10178 20144 51007





000
SAUS43 KBIS 031054
MTRN60
METAR KN60 031052Z AUTO 34003KT 16/14 A3000 RMK AO1 SLP151 T01560144





000
SAUS43 KBIS 030954
MTRN60
METAR KN60 030952Z AUTO 36006KT 16/15 A2999 RMK AO1 SLP150 T01610150





000
SAUS43 KBIS 030954
MTRN60
METAR KN60 030952Z AUTO 36006KT 16/15 A2999 RMK AO1 SLP150 T01610150





000
SAUS43 KBIS 030853
MTRN60
METAR KN60 030852Z AUTO 00000KT 17/15 A2998 RMK AO1 SLP146 T01670150
58002





000
SAUS43 KBIS 030753
MTRN60
METAR KN60 030752Z AUTO 00000KT 17/16 A2999 RMK AO1 SLP147 T01720156





000
SAUS43 KBIS 030753
MTRN60
METAR KN60 030752Z AUTO 00000KT 17/16 A2999 RMK AO1 SLP147 T01720156





000
SAUS43 KBIS 030653
MTRN60
METAR KN60 030652Z AUTO 00000KT 17/16 A2999 RMK AO1 SLP149 T01720161





000
SAUS43 KBIS 030554
MTRN60
METAR KN60 030552Z AUTO 32005KT 18/16 A2999 RMK AO1 SLP149 T01780161
10256 20178 402670150 51003





000
SAUS43 KBIS 030554
MTRN60
METAR KN60 030552Z AUTO 32005KT 18/16 A2999 RMK AO1 SLP149 T01780161
10256 20178 402670150 51003





000
SAUS43 KBIS 030453
MTRN60
METAR KN60 030452Z AUTO 32004KT 18/17 A2998 RMK AO1 SLP146 T01830167





000
SAUS43 KBIS 030354
MTRN60
METAR KN60 030352Z AUTO 32006KT 18/17 A2999 RMK AO1 SLP149 T01830172





000
SAUS43 KBIS 030253
MTRN60
METAR KN60 030252Z AUTO 32005KT 20/18 A2998 RMK AO1 SLP147 T02000183
53006





000
SAUS43 KBIS 030153
MTRN60
METAR KN60 030152Z AUTO 33004KT 22/19 A2997 RMK AO1 SLP143 T02220194





000
SAUS43 KBIS 030153
MTRN60
METAR KN60 030152Z AUTO 33004KT 22/19 A2997 RMK AO1 SLP143 T02220194





000
SAUS43 KBIS 030053
MTRN60
METAR KN60 030052Z AUTO 35006KT 24/18 A2997 RMK AO1 SLP141 T02390183





000
SAUS43 KBIS 030053
MTRN60
METAR KN60 030052Z AUTO 35006KT 24/18 A2997 RMK AO1 SLP141 T02390183





000
SAUS43 KBIS 022354
MTRN60
METAR KN60 022352Z AUTO 35006KT 26/19 A2996 RMK AO1 SLP140 T02560189
10267 20233 58007





000
SAUS43 KBIS 022253
MTRN60
METAR KN60 022252Z AUTO 34008KT 26/18 A2997 RMK AO1 SLP141 T02610178





000
SAUS43 KBIS 022154
MTRN60
METAR KN60 022152Z AUTO 31009KT 26/18 A2998 RMK AO1 SLP144 T02610178





000
SAUS43 KBIS 022154
MTRN60
METAR KN60 022152Z AUTO 31009KT 26/18 A2998 RMK AO1 SLP144 T02610178





000
SAUS43 KBIS 022054
MTRN60
METAR KN60 022052Z AUTO 33010KT 26/17 A2998 RMK AO1 SLP147 T02560172
58002





000
SAUS43 KBIS 022054
MTRN60
METAR KN60 022052Z AUTO 33010KT 26/17 A2998 RMK AO1 SLP147 T02560172
58002





000
SAUS43 KBIS 021954
MTRN60
METAR KN60 021952Z AUTO VRB04KT 24/18 A2999 RMK AO1 SLP149 T02440178





000
SAUS43 KBIS 021854
MTRN60
METAR KN60 021852Z AUTO VRB06KT 24/17 A2999 RMK AO1 SLP148 T02440167





000
SAUS43 KBIS 021754
MTRN60
METAR KN60 021752Z AUTO 33007KT 23/18 A2999 RMK AO1 SLP148 T02330178
10233 20156 58001





000
SAUS43 KBIS 021653
MTRN60
METAR KN60 021652Z AUTO 33006KT 23/18 A3000 RMK AO1 SLP151 T02330178





000
SAUS43 KBIS 021554
MTRN60
METAR KN60 021552Z AUTO 35006KT 22/18 A3000 RMK AO1 SLP152 T02170183





    US Dept of Commerce
    National Oceanic and Atmospheric Administration
    National Weather Service
    1325 East West Highway
    Silver Spring, MD 20910
    Page Author: NWS Internet Services Team
Disclaimer
Information Quality
Credits
Glossary
Privacy Policy
Freedom of Information Act (FOIA)
About Us
Career Opportunities